sensor_id;sensor_type;location;lat;lon;timestamp;P1;durP1;ratioP1;P2;durP2;ratioP2
8675;SDS011;4375;52.486;13.424;2023-06-19T00:01:54;26.37;;;13.47;;
8675;SDS011;4375;52.486;13.424;2023-06-19T00:04:20;24.60;;;12.77;;
8675;SDS011;4375;52.486;13.424;2023-06-19T00:06:45;24.50;;;12.60;;
8675;SDS011;4375;52.486;13.424;2023-06-19T00:09:11;24.20;;;12.90;;
8675;SDS011;4375;52.486;13.424;2023-06-19T00:11:37;22.80;;;12.37;;
8675;SDS011;4375;52.486;13.424;2023-06-19T00:14:02;29.57;;;13.33;;
8675;SDS011;4375;52.486;13.424;2023-06-19T00:16:28;27.10;;;13.47;;
8675;SDS011;4375;52.486;13.424;2023-06-19T00:18:53;26.10;;;12.83;;
8675;SDS011;4375;52.486;13.424;2023-06-19T00:21:24;26.70;;;14.00;;
8675;SDS011;4375;52.486;13.424;2023-06-19T00:23:51;24.27;;;13.10;;
8675;SDS011;4375;52.486;13.424;2023-06-19T00:26:17;26.20;;;12.60;;
8675;SDS011;4375;52.486;13.424;2023-06-19T00:28:47;25.17;;;13.00;;
8675;SDS011;4375;52.486;13.424;2023-06-19T00:31:16;26.43;;;13.47;;
8675;SDS011;4375;52.486;13.424;2023-06-19T00:33:43;29.50;;;13.63;;
8675;SDS011;4375;52.486;13.424;2023-06-19T00:36:10;27.30;;;13.30;;
8675;SDS011;4375;52.486;13.424;2023-06-19T00:38:37;24.20;;;13.33;;
8675;SDS011;4375;52.486;13.424;2023-06-19T00:41:04;26.03;;;14.03;;
8675;SDS011;4375;52.486;13.424;2023-06-19T00:43:30;28.20;;;13.97;;
8675;SDS011;4375;52.486;13.424;2023-06-19T00:45:59;25.20;;;13.40;;
8675;SDS011;4375;52.486;13.424;2023-06-19T00:48:26;28.43;;;13.33;;
8675;SDS011;4375;52.486;13.424;2023-06-19T00:50:53;30.50;;;14.50;;
8675;SDS011;4375;52.486;13.424;2023-06-19T00:53:21;27.63;;;13.70;;
8675;SDS011;4375;52.486;13.424;2023-06-19T00:55:47;26.63;;;13.00;;
8675;SDS011;4375;52.486;13.424;2023-06-19T00:58:13;24.77;;;13.60;;
8675;SDS011;4375;52.486;13.424;2023-06-19T01:00:40;26.47;;;13.40;;
8675;SDS011;4375;52.486;13.424;2023-06-19T01:03:06;25.20;;;13.80;;
8675;SDS011;4375;52.486;13.424;2023-06-19T01:05:31;28.90;;;13.93;;
8675;SDS011;4375;52.486;13.424;2023-06-19T01:10:57;28.63;;;14.20;;
8675;SDS011;4375;52.486;13.424;2023-06-19T01:16:06;25.67;;;14.23;;
8675;SDS011;4375;52.486;13.424;2023-06-19T01:18:32;27.00;;;14.70;;
8675;SDS011;4375;52.486;13.424;2023-06-19T01:21:12;27.40;;;15.07;;
8675;SDS011;4375;52.486;13.424;2023-06-19T01:23:38;24.90;;;13.93;;
8675;SDS011;4375;52.486;13.424;2023-06-19T01:26:05;26.00;;;14.73;;
8675;SDS011;4375;52.486;13.424;2023-06-19T01:28:32;28.37;;;13.63;;
8675;SDS011;4375;52.486;13.424;2023-06-19T01:30:59;28.37;;;13.77;;
8675;SDS011;4375;52.486;13.424;2023-06-19T01:33:26;25.60;;;13.77;;
8675;SDS011;4375;52.486;13.424;2023-06-19T01:35:54;25.87;;;14.33;;
8675;SDS011;4375;52.486;13.424;2023-06-19T01:38:22;27.30;;;13.67;;
8675;SDS011;4375;52.486;13.424;2023-06-19T01:40:50;26.13;;;14.33;;
8675;SDS011;4375;52.486;13.424;2023-06-19T01:43:18;26.20;;;13.60;;
8675;SDS011;4375;52.486;13.424;2023-06-19T01:45:45;25.80;;;14.03;;
8675;SDS011;4375;52.486;13.424;2023-06-19T01:48:10;26.10;;;13.73;;
8675;SDS011;4375;52.486;13.424;2023-06-19T01:50:36;28.97;;;15.50;;
8675;SDS011;4375;52.486;13.424;2023-06-19T01:53:02;26.27;;;14.30;;
8675;SDS011;4375;52.486;13.424;2023-06-19T01:55:27;26.10;;;14.40;;
8675;SDS011;4375;52.486;13.424;2023-06-19T01:57:53;27.50;;;15.80;;
8675;SDS011;4375;52.486;13.424;2023-06-19T02:00:19;26.20;;;14.50;;
8675;SDS011;4375;52.486;13.424;2023-06-19T02:02:44;27.10;;;14.03;;
8675;SDS011;4375;52.486;13.424;2023-06-19T02:05:10;26.77;;;14.50;;
8675;SDS011;4375;52.486;13.424;2023-06-19T02:07:36;25.90;;;14.27;;
8675;SDS011;4375;52.486;13.424;2023-06-19T02:10:02;25.63;;;14.13;;
8675;SDS011;4375;52.486;13.424;2023-06-19T02:12:27;28.63;;;15.13;;
8675;SDS011;4375;52.486;13.424;2023-06-19T02:14:53;27.60;;;14.13;;
8675;SDS011;4375;52.486;13.424;2023-06-19T02:17:19;31.07;;;15.47;;
8675;SDS011;4375;52.486;13.424;2023-06-19T02:19:44;28.60;;;15.60;;
8675;SDS011;4375;52.486;13.424;2023-06-19T02:22:10;27.10;;;14.90;;
8675;SDS011;4375;52.486;13.424;2023-06-19T02:24:36;25.70;;;14.23;;
8675;SDS011;4375;52.486;13.424;2023-06-19T02:27:05;27.37;;;15.70;;
8675;SDS011;4375;52.486;13.424;2023-06-19T02:29:31;28.63;;;15.00;;
8675;SDS011;4375;52.486;13.424;2023-06-19T02:31:58;26.47;;;14.30;;
8675;SDS011;4375;52.486;13.424;2023-06-19T02:34:25;26.47;;;15.20;;
8675;SDS011;4375;52.486;13.424;2023-06-19T02:36:51;26.40;;;15.03;;
8675;SDS011;4375;52.486;13.424;2023-06-19T02:39:16;26.07;;;15.07;;
8675;SDS011;4375;52.486;13.424;2023-06-19T02:41:43;28.40;;;14.53;;
8675;SDS011;4375;52.486;13.424;2023-06-19T02:44:11;27.57;;;15.47;;
8675;SDS011;4375;52.486;13.424;2023-06-19T02:46:37;26.77;;;14.93;;
8675;SDS011;4375;52.486;13.424;2023-06-19T02:49:03;28.30;;;14.37;;
8675;SDS011;4375;52.486;13.424;2023-06-19T02:51:28;30.50;;;15.80;;
8675;SDS011;4375;52.486;13.424;2023-06-19T02:53:54;28.63;;;15.07;;
8675;SDS011;4375;52.486;13.424;2023-06-19T02:56:19;26.77;;;13.93;;
8675;SDS011;4375;52.486;13.424;2023-06-19T02:58:45;27.57;;;15.47;;
8675;SDS011;4375;52.486;13.424;2023-06-19T03:01:11;30.73;;;15.83;;
8675;SDS011;4375;52.486;13.424;2023-06-19T03:03:36;27.03;;;15.10;;
8675;SDS011;4375;52.486;13.424;2023-06-19T03:06:05;27.07;;;15.27;;
8675;SDS011;4375;52.486;13.424;2023-06-19T03:08:35;29.83;;;17.10;;
8675;SDS011;4375;52.486;13.424;2023-06-19T03:11:01;26.13;;;15.10;;
8675;SDS011;4375;52.486;13.424;2023-06-19T03:13:49;30.27;;;16.30;;
8675;SDS011;4375;52.486;13.424;2023-06-19T03:16:16;27.27;;;15.40;;
8675;SDS011;4375;52.486;13.424;2023-06-19T03:18:42;27.27;;;15.70;;
8675;SDS011;4375;52.486;13.424;2023-06-19T03:21:11;30.30;;;15.90;;
8675;SDS011;4375;52.486;13.424;2023-06-19T03:23:40;27.93;;;16.03;;
8675;SDS011;4375;52.486;13.424;2023-06-19T03:26:14;28.10;;;16.63;;
8675;SDS011;4375;52.486;13.424;2023-06-19T03:28:49;27.20;;;16.00;;
8675;SDS011;4375;52.486;13.424;2023-06-19T03:31:27;28.80;;;16.33;;
8675;SDS011;4375;52.486;13.424;2023-06-19T03:34:23;30.50;;;16.87;;
8675;SDS011;4375;52.486;13.424;2023-06-19T03:40:13;26.10;;;14.17;;
8675;SDS011;4375;52.486;13.424;2023-06-19T03:42:52;31.83;;;16.13;;
8675;SDS011;4375;52.486;13.424;2023-06-19T03:45:18;26.00;;;15.77;;
8675;SDS011;4375;52.486;13.424;2023-06-19T03:47:49;32.03;;;16.17;;
8675;SDS011;4375;52.486;13.424;2023-06-19T03:50:28;30.70;;;15.20;;
8675;SDS011;4375;52.486;13.424;2023-06-19T03:53:05;28.53;;;15.77;;
8675;SDS011;4375;52.486;13.424;2023-06-19T03:55:40;26.67;;;15.30;;
8675;SDS011;4375;52.486;13.424;2023-06-19T03:58:15;28.27;;;15.47;;
8675;SDS011;4375;52.486;13.424;2023-06-19T04:00:41;30.47;;;16.20;;
8675;SDS011;4375;52.486;13.424;2023-06-19T04:03:06;32.30;;;16.50;;
8675;SDS011;4375;52.486;13.424;2023-06-19T04:05:34;26.57;;;15.33;;
8675;SDS011;4375;52.486;13.424;2023-06-19T04:08:00;29.73;;;16.10;;
8675;SDS011;4375;52.486;13.424;2023-06-19T04:10:25;28.30;;;15.60;;
8675;SDS011;4375;52.486;13.424;2023-06-19T04:12:51;25.70;;;14.90;;
8675;SDS011;4375;52.486;13.424;2023-06-19T04:15:16;29.53;;;16.17;;
8675;SDS011;4375;52.486;13.424;2023-06-19T04:17:42;29.00;;;15.93;;
8675;SDS011;4375;52.486;13.424;2023-06-19T04:20:08;28.97;;;16.13;;
8675;SDS011;4375;52.486;13.424;2023-06-19T04:22:36;27.27;;;16.67;;
8675;SDS011;4375;52.486;13.424;2023-06-19T04:25:03;27.83;;;15.67;;
8675;SDS011;4375;52.486;13.424;2023-06-19T04:27:30;28.03;;;15.80;;
8675;SDS011;4375;52.486;13.424;2023-06-19T04:29:56;28.77;;;17.13;;
8675;SDS011;4375;52.486;13.424;2023-06-19T04:32:22;28.70;;;15.67;;
8675;SDS011;4375;52.486;13.424;2023-06-19T04:34:47;26.23;;;15.20;;
8675;SDS011;4375;52.486;13.424;2023-06-19T04:37:13;29.87;;;18.17;;
8675;SDS011;4375;52.486;13.424;2023-06-19T04:39:44;29.10;;;16.67;;
8675;SDS011;4375;52.486;13.424;2023-06-19T04:42:10;28.17;;;16.63;;
8675;SDS011;4375;52.486;13.424;2023-06-19T04:44:37;29.13;;;16.47;;
8675;SDS011;4375;52.486;13.424;2023-06-19T04:47:03;27.90;;;16.17;;
8675;SDS011;4375;52.486;13.424;2023-06-19T04:49:29;28.50;;;15.90;;
8675;SDS011;4375;52.486;13.424;2023-06-19T04:51:55;29.83;;;17.43;;
8675;SDS011;4375;52.486;13.424;2023-06-19T04:54:22;28.20;;;16.37;;
8675;SDS011;4375;52.486;13.424;2023-06-19T04:56:48;28.57;;;16.67;;
8675;SDS011;4375;52.486;13.424;2023-06-19T04:59:13;28.77;;;16.10;;
8675;SDS011;4375;52.486;13.424;2023-06-19T05:01:42;29.00;;;16.27;;
8675;SDS011;4375;52.486;13.424;2023-06-19T05:04:09;29.10;;;16.10;;
8675;SDS011;4375;52.486;13.424;2023-06-19T05:06:36;32.23;;;16.20;;
8675;SDS011;4375;52.486;13.424;2023-06-19T05:09:02;33.80;;;17.00;;
8675;SDS011;4375;52.486;13.424;2023-06-19T05:11:28;28.93;;;17.00;;
8675;SDS011;4375;52.486;13.424;2023-06-19T05:13:53;29.03;;;17.17;;
8675;SDS011;4375;52.486;13.424;2023-06-19T05:16:19;27.93;;;17.10;;
8675;SDS011;4375;52.486;13.424;2023-06-19T05:18:45;28.80;;;16.27;;
8675;SDS011;4375;52.486;13.424;2023-06-19T05:21:11;30.83;;;17.43;;
8675;SDS011;4375;52.486;13.424;2023-06-19T05:23:37;30.57;;;16.67;;
8675;SDS011;4375;52.486;13.424;2023-06-19T05:26:06;30.70;;;17.20;;
8675;SDS011;4375;52.486;13.424;2023-06-19T05:28:31;28.53;;;17.67;;
8675;SDS011;4375;52.486;13.424;2023-06-19T05:30:57;29.97;;;18.30;;
8675;SDS011;4375;52.486;13.424;2023-06-19T05:33:22;31.37;;;17.60;;
8675;SDS011;4375;52.486;13.424;2023-06-19T05:35:48;29.47;;;17.10;;
8675;SDS011;4375;52.486;13.424;2023-06-19T05:38:19;30.93;;;17.43;;
8675;SDS011;4375;52.486;13.424;2023-06-19T05:40:45;28.83;;;17.33;;
8675;SDS011;4375;52.486;13.424;2023-06-19T05:43:11;27.40;;;15.60;;
8675;SDS011;4375;52.486;13.424;2023-06-19T05:45:37;29.70;;;16.10;;
8675;SDS011;4375;52.486;13.424;2023-06-19T05:48:03;29.27;;;17.00;;
8675;SDS011;4375;52.486;13.424;2023-06-19T05:50:29;29.30;;;17.37;;
8675;SDS011;4375;52.486;13.424;2023-06-19T05:52:55;28.67;;;16.90;;
8675;SDS011;4375;52.486;13.424;2023-06-19T05:55:21;29.93;;;17.60;;
8675;SDS011;4375;52.486;13.424;2023-06-19T05:57:47;28.23;;;17.00;;
8675;SDS011;4375;52.486;13.424;2023-06-19T06:00:12;29.57;;;17.27;;
8675;SDS011;4375;52.486;13.424;2023-06-19T06:02:40;29.27;;;16.40;;
8675;SDS011;4375;52.486;13.424;2023-06-19T06:05:06;29.17;;;17.60;;
8675;SDS011;4375;52.486;13.424;2023-06-19T06:07:33;29.93;;;17.70;;
8675;SDS011;4375;52.486;13.424;2023-06-19T06:09:59;27.93;;;17.20;;
8675;SDS011;4375;52.486;13.424;2023-06-19T06:12:25;30.13;;;16.77;;
8675;SDS011;4375;52.486;13.424;2023-06-19T06:14:50;31.20;;;18.47;;
8675;SDS011;4375;52.486;13.424;2023-06-19T06:17:16;32.40;;;17.43;;
8675;SDS011;4375;52.486;13.424;2023-06-19T06:19:42;32.30;;;18.00;;
8675;SDS011;4375;52.486;13.424;2023-06-19T06:22:07;31.67;;;17.83;;
8675;SDS011;4375;52.486;13.424;2023-06-19T06:24:33;31.73;;;18.20;;
8675;SDS011;4375;52.486;13.424;2023-06-19T06:26:58;33.07;;;17.40;;
8675;SDS011;4375;52.486;13.424;2023-06-19T06:29:24;35.77;;;18.80;;
8675;SDS011;4375;52.486;13.424;2023-06-19T06:31:50;33.07;;;18.30;;
8675;SDS011;4375;52.486;13.424;2023-06-19T06:34:17;36.17;;;17.33;;
8675;SDS011;4375;52.486;13.424;2023-06-19T06:36:44;36.03;;;19.20;;
8675;SDS011;4375;52.486;13.424;2023-06-19T06:39:10;30.77;;;17.80;;
8675;SDS011;4375;52.486;13.424;2023-06-19T06:41:36;33.23;;;18.47;;
8675;SDS011;4375;52.486;13.424;2023-06-19T06:44:01;31.20;;;17.77;;
8675;SDS011;4375;52.486;13.424;2023-06-19T06:46:27;28.33;;;16.87;;
8675;SDS011;4375;52.486;13.424;2023-06-19T06:48:56;35.77;;;18.23;;
8675;SDS011;4375;52.486;13.424;2023-06-19T06:51:21;37.00;;;18.00;;
8675;SDS011;4375;52.486;13.424;2023-06-19T06:53:47;35.60;;;17.63;;
8675;SDS011;4375;52.486;13.424;2023-06-19T06:56:13;34.03;;;17.87;;
8675;SDS011;4375;52.486;13.424;2023-06-19T06:58:39;30.80;;;18.90;;
8675;SDS011;4375;52.486;13.424;2023-06-19T07:01:04;33.60;;;18.80;;
8675;SDS011;4375;52.486;13.424;2023-06-19T07:03:30;33.00;;;18.50;;
8675;SDS011;4375;52.486;13.424;2023-06-19T07:05:57;32.17;;;17.90;;
8675;SDS011;4375;52.486;13.424;2023-06-19T07:08:23;29.70;;;17.73;;
8675;SDS011;4375;52.486;13.424;2023-06-19T07:10:48;34.47;;;16.10;;
8675;SDS011;4375;52.486;13.424;2023-06-19T07:13:14;29.10;;;17.60;;
8675;SDS011;4375;52.486;13.424;2023-06-19T07:15:39;27.87;;;16.00;;
8675;SDS011;4375;52.486;13.424;2023-06-19T07:18:05;30.73;;;16.67;;
8675;SDS011;4375;52.486;13.424;2023-06-19T07:20:31;28.80;;;16.67;;
8675;SDS011;4375;52.486;13.424;2023-06-19T07:22:56;29.20;;;16.90;;
8675;SDS011;4375;52.486;13.424;2023-06-19T07:25:22;27.67;;;16.63;;
8675;SDS011;4375;52.486;13.424;2023-06-19T07:27:50;28.87;;;16.50;;
8675;SDS011;4375;52.486;13.424;2023-06-19T07:30:16;32.33;;;16.30;;
8675;SDS011;4375;52.486;13.424;2023-06-19T07:32:41;29.87;;;16.47;;
8675;SDS011;4375;52.486;13.424;2023-06-19T07:35:07;32.63;;;16.90;;
8675;SDS011;4375;52.486;13.424;2023-06-19T07:37:33;32.43;;;16.90;;
8675;SDS011;4375;52.486;13.424;2023-06-19T07:39:58;32.47;;;15.90;;
8675;SDS011;4375;52.486;13.424;2023-06-19T07:42:25;26.90;;;16.17;;
8675;SDS011;4375;52.486;13.424;2023-06-19T07:44:51;28.47;;;16.23;;
8675;SDS011;4375;52.486;13.424;2023-06-19T07:47:17;28.53;;;15.67;;
8675;SDS011;4375;52.486;13.424;2023-06-19T07:49:43;28.43;;;15.13;;
8675;SDS011;4375;52.486;13.424;2023-06-19T07:52:10;29.73;;;15.70;;
8675;SDS011;4375;52.486;13.424;2023-06-19T07:54:36;27.70;;;16.03;;
8675;SDS011;4375;52.486;13.424;2023-06-19T07:57:02;33.57;;;16.03;;
8675;SDS011;4375;52.486;13.424;2023-06-19T07:59:27;29.47;;;15.50;;
8675;SDS011;4375;52.486;13.424;2023-06-19T08:01:53;30.60;;;15.67;;
8675;SDS011;4375;52.486;13.424;2023-06-19T08:04:18;28.13;;;15.83;;
8675;SDS011;4375;52.486;13.424;2023-06-19T08:06:44;30.33;;;14.50;;
8675;SDS011;4375;52.486;13.424;2023-06-19T08:09:10;29.90;;;15.70;;
8675;SDS011;4375;52.486;13.424;2023-06-19T08:11:35;28.13;;;14.47;;
8675;SDS011;4375;52.486;13.424;2023-06-19T08:14:02;29.63;;;15.60;;
8675;SDS011;4375;52.486;13.424;2023-06-19T08:16:28;28.20;;;14.30;;
8675;SDS011;4375;52.486;13.424;2023-06-19T08:18:53;31.10;;;14.33;;
8675;SDS011;4375;52.486;13.424;2023-06-19T08:21:19;27.10;;;13.87;;
8675;SDS011;4375;52.486;13.424;2023-06-19T08:23:46;31.97;;;14.40;;
8675;SDS011;4375;52.486;13.424;2023-06-19T08:26:13;26.17;;;14.30;;
8675;SDS011;4375;52.486;13.424;2023-06-19T08:28:38;31.40;;;14.23;;
8675;SDS011;4375;52.486;13.424;2023-06-19T08:31:06;28.20;;;13.83;;
8675;SDS011;4375;52.486;13.424;2023-06-19T08:33:33;28.43;;;16.17;;
8675;SDS011;4375;52.486;13.424;2023-06-19T08:36:00;27.70;;;13.83;;
8675;SDS011;4375;52.486;13.424;2023-06-19T08:38:25;28.53;;;15.47;;
8675;SDS011;4375;52.486;13.424;2023-06-19T08:40:51;25.57;;;14.23;;
8675;SDS011;4375;52.486;13.424;2023-06-19T08:43:17;28.30;;;14.60;;
8675;SDS011;4375;52.486;13.424;2023-06-19T08:45:42;33.43;;;14.90;;
8675;SDS011;4375;52.486;13.424;2023-06-19T08:48:12;29.20;;;16.37;;
8675;SDS011;4375;52.486;13.424;2023-06-19T08:50:38;27.07;;;14.80;;
8675;SDS011;4375;52.486;13.424;2023-06-19T08:53:06;28.97;;;15.30;;
8675;SDS011;4375;52.486;13.424;2023-06-19T08:55:32;27.33;;;14.60;;
8675;SDS011;4375;52.486;13.424;2023-06-19T08:57:59;32.50;;;14.13;;
8675;SDS011;4375;52.486;13.424;2023-06-19T09:00:26;27.33;;;13.83;;
8675;SDS011;4375;52.486;13.424;2023-06-19T09:02:52;29.63;;;14.90;;
8675;SDS011;4375;52.486;13.424;2023-06-19T09:05:27;24.27;;;12.80;;
8675;SDS011;4375;52.486;13.424;2023-06-19T09:08:00;24.60;;;13.77;;
8675;SDS011;4375;52.486;13.424;2023-06-19T09:13:33;27.90;;;15.00;;
8675;SDS011;4375;52.486;13.424;2023-06-19T09:15:59;28.80;;;13.83;;
8675;SDS011;4375;52.486;13.424;2023-06-19T09:18:32;26.57;;;14.17;;
8675;SDS011;4375;52.486;13.424;2023-06-19T09:21:14;29.20;;;13.30;;
8675;SDS011;4375;52.486;13.424;2023-06-19T09:23:41;27.10;;;13.80;;
8675;SDS011;4375;52.486;13.424;2023-06-19T09:26:07;28.37;;;15.50;;
8675;SDS011;4375;52.486;13.424;2023-06-19T09:28:33;25.70;;;13.13;;
8675;SDS011;4375;52.486;13.424;2023-06-19T09:31:02;26.77;;;15.57;;
8675;SDS011;4375;52.486;13.424;2023-06-19T09:33:31;31.40;;;14.03;;
8675;SDS011;4375;52.486;13.424;2023-06-19T09:35:58;26.93;;;14.97;;
8675;SDS011;4375;52.486;13.424;2023-06-19T09:38:25;28.23;;;15.20;;
8675;SDS011;4375;52.486;13.424;2023-06-19T09:41:02;31.80;;;15.10;;
8675;SDS011;4375;52.486;13.424;2023-06-19T09:43:46;28.27;;;15.27;;
8675;SDS011;4375;52.486;13.424;2023-06-19T09:46:12;29.63;;;16.47;;
8675;SDS011;4375;52.486;13.424;2023-06-19T09:48:44;27.83;;;15.20;;
8675;SDS011;4375;52.486;13.424;2023-06-19T09:51:18;26.20;;;14.13;;
8675;SDS011;4375;52.486;13.424;2023-06-19T09:53:45;29.07;;;15.67;;
8675;SDS011;4375;52.486;13.424;2023-06-19T09:56:13;27.80;;;14.90;;
8675;SDS011;4375;52.486;13.424;2023-06-19T09:58:40;26.70;;;15.57;;
8675;SDS011;4375;52.486;13.424;2023-06-19T10:01:07;28.77;;;15.13;;
8675;SDS011;4375;52.486;13.424;2023-06-19T10:03:34;27.37;;;15.33;;
8675;SDS011;4375;52.486;13.424;2023-06-19T10:06:01;26.20;;;13.80;;
8675;SDS011;4375;52.486;13.424;2023-06-19T10:08:31;25.60;;;15.07;;
8675;SDS011;4375;52.486;13.424;2023-06-19T10:11:04;27.73;;;14.77;;
8675;SDS011;4375;52.486;13.424;2023-06-19T10:13:31;26.90;;;14.03;;
8675;SDS011;4375;52.486;13.424;2023-06-19T10:15:58;25.10;;;14.60;;
8675;SDS011;4375;52.486;13.424;2023-06-19T10:18:24;26.40;;;13.77;;
8675;SDS011;4375;52.486;13.424;2023-06-19T10:20:51;25.97;;;14.77;;
8675;SDS011;4375;52.486;13.424;2023-06-19T10:23:25;25.87;;;14.33;;
8675;SDS011;4375;52.486;13.424;2023-06-19T10:28:20;27.33;;;14.93;;
8675;SDS011;4375;52.486;13.424;2023-06-19T10:30:54;27.97;;;15.77;;
8675;SDS011;4375;52.486;13.424;2023-06-19T10:33:25;26.93;;;13.83;;
8675;SDS011;4375;52.486;13.424;2023-06-19T10:35:53;29.30;;;13.97;;
8675;SDS011;4375;52.486;13.424;2023-06-19T10:38:19;29.50;;;14.17;;
8675;SDS011;4375;52.486;13.424;2023-06-19T10:40:44;25.87;;;14.70;;
8675;SDS011;4375;52.486;13.424;2023-06-19T10:43:11;29.47;;;14.23;;
8675;SDS011;4375;52.486;13.424;2023-06-19T10:45:38;28.07;;;14.47;;
8675;SDS011;4375;52.486;13.424;2023-06-19T10:48:04;27.50;;;14.07;;
8675;SDS011;4375;52.486;13.424;2023-06-19T10:50:30;31.37;;;15.20;;
8675;SDS011;4375;52.486;13.424;2023-06-19T10:53:00;28.97;;;15.77;;
8675;SDS011;4375;52.486;13.424;2023-06-19T10:55:26;26.97;;;15.70;;
8675;SDS011;4375;52.486;13.424;2023-06-19T10:57:52;26.97;;;15.93;;
8675;SDS011;4375;52.486;13.424;2023-06-19T11:00:26;26.20;;;14.50;;
8675;SDS011;4375;52.486;13.424;2023-06-19T11:02:56;30.50;;;14.73;;
8675;SDS011;4375;52.486;13.424;2023-06-19T11:05:23;24.73;;;14.33;;
8675;SDS011;4375;52.486;13.424;2023-06-19T11:07:58;28.73;;;13.60;;
8675;SDS011;4375;52.486;13.424;2023-06-19T11:10:25;26.23;;;14.03;;
8675;SDS011;4375;52.486;13.424;2023-06-19T11:12:53;23.90;;;12.90;;
8675;SDS011;4375;52.486;13.424;2023-06-19T11:15:32;25.73;;;14.70;;
8675;SDS011;4375;52.486;13.424;2023-06-19T11:17:59;27.70;;;14.10;;
8675;SDS011;4375;52.486;13.424;2023-06-19T11:20:27;24.83;;;13.53;;
8675;SDS011;4375;52.486;13.424;2023-06-19T11:22:59;25.10;;;13.70;;
8675;SDS011;4375;52.486;13.424;2023-06-19T11:25:38;26.33;;;13.80;;
8675;SDS011;4375;52.486;13.424;2023-06-19T11:28:10;29.80;;;14.20;;
8675;SDS011;4375;52.486;13.424;2023-06-19T11:30:40;24.50;;;13.70;;
8675;SDS011;4375;52.486;13.424;2023-06-19T11:33:18;25.73;;;13.50;;
8675;SDS011;4375;52.486;13.424;2023-06-19T11:35:59;25.43;;;13.63;;
8675;SDS011;4375;52.486;13.424;2023-06-19T11:38:26;26.87;;;14.97;;
8675;SDS011;4375;52.486;13.424;2023-06-19T11:40:52;27.57;;;14.43;;
8675;SDS011;4375;52.486;13.424;2023-06-19T11:43:26;31.10;;;13.30;;
8675;SDS011;4375;52.486;13.424;2023-06-19T11:45:53;23.80;;;12.80;;
8675;SDS011;4375;52.486;13.424;2023-06-19T11:48:29;26.07;;;13.47;;
8675;SDS011;4375;52.486;13.424;2023-06-19T11:50:55;24.47;;;12.70;;
8675;SDS011;4375;52.486;13.424;2023-06-19T11:53:21;24.33;;;12.40;;
8675;SDS011;4375;52.486;13.424;2023-06-19T11:55:48;24.37;;;12.60;;
8675;SDS011;4375;52.486;13.424;2023-06-19T11:58:18;26.03;;;13.40;;
8675;SDS011;4375;52.486;13.424;2023-06-19T12:00:45;22.53;;;12.20;;
8675;SDS011;4375;52.486;13.424;2023-06-19T12:03:11;22.40;;;11.87;;
8675;SDS011;4375;52.486;13.424;2023-06-19T12:05:37;26.60;;;12.83;;
8675;SDS011;4375;52.486;13.424;2023-06-19T12:08:03;22.80;;;11.43;;
8675;SDS011;4375;52.486;13.424;2023-06-19T12:10:41;24.97;;;12.97;;
8675;SDS011;4375;52.486;13.424;2023-06-19T12:13:07;29.03;;;13.03;;
8675;SDS011;4375;52.486;13.424;2023-06-19T12:15:32;24.70;;;12.60;;
8675;SDS011;4375;52.486;13.424;2023-06-19T12:17:58;26.10;;;12.07;;
8675;SDS011;4375;52.486;13.424;2023-06-19T12:20:24;23.47;;;12.53;;
8675;SDS011;4375;52.486;13.424;2023-06-19T12:22:50;22.50;;;11.63;;
8675;SDS011;4375;52.486;13.424;2023-06-19T12:25:15;24.23;;;11.70;;
8675;SDS011;4375;52.486;13.424;2023-06-19T12:27:41;23.23;;;11.70;;
8675;SDS011;4375;52.486;13.424;2023-06-19T12:30:07;29.03;;;11.53;;
8675;SDS011;4375;52.486;13.424;2023-06-19T12:32:33;23.67;;;12.00;;
8675;SDS011;4375;52.486;13.424;2023-06-19T12:34:59;23.00;;;11.40;;
8675;SDS011;4375;52.486;13.424;2023-06-19T12:37:25;23.10;;;11.20;;
8675;SDS011;4375;52.486;13.424;2023-06-19T12:39:50;24.60;;;11.87;;
8675;SDS011;4375;52.486;13.424;2023-06-19T12:42:16;21.80;;;10.40;;
8675;SDS011;4375;52.486;13.424;2023-06-19T12:44:42;21.60;;;10.73;;
8675;SDS011;4375;52.486;13.424;2023-06-19T12:47:11;24.30;;;11.30;;
8675;SDS011;4375;52.486;13.424;2023-06-19T12:49:43;22.20;;;10.50;;
8675;SDS011;4375;52.486;13.424;2023-06-19T12:52:08;24.93;;;12.33;;
8675;SDS011;4375;52.486;13.424;2023-06-19T12:54:34;23.03;;;10.90;;
8675;SDS011;4375;52.486;13.424;2023-06-19T12:57:00;22.20;;;10.77;;
8675;SDS011;4375;52.486;13.424;2023-06-19T12:59:25;22.37;;;11.00;;
8675;SDS011;4375;52.486;13.424;2023-06-19T13:01:51;26.30;;;12.63;;
8675;SDS011;4375;52.486;13.424;2023-06-19T13:04:17;24.57;;;12.47;;
8675;SDS011;4375;52.486;13.424;2023-06-19T13:06:42;25.80;;;12.23;;
8675;SDS011;4375;52.486;13.424;2023-06-19T13:09:08;24.47;;;11.90;;
8675;SDS011;4375;52.486;13.424;2023-06-19T13:11:34;24.37;;;11.90;;
8675;SDS011;4375;52.486;13.424;2023-06-19T13:14:00;22.77;;;11.37;;
8675;SDS011;4375;52.486;13.424;2023-06-19T13:16:26;23.30;;;11.87;;
8675;SDS011;4375;52.486;13.424;2023-06-19T13:18:52;24.43;;;11.80;;
8675;SDS011;4375;52.486;13.424;2023-06-19T13:21:17;24.37;;;12.60;;
8675;SDS011;4375;52.486;13.424;2023-06-19T13:23:43;23.90;;;12.40;;
8675;SDS011;4375;52.486;13.424;2023-06-19T13:26:09;22.87;;;12.40;;
8675;SDS011;4375;52.486;13.424;2023-06-19T13:28:35;24.60;;;13.47;;
8675;SDS011;4375;52.486;13.424;2023-06-19T13:31:01;25.60;;;13.90;;
8675;SDS011;4375;52.486;13.424;2023-06-19T13:33:27;25.93;;;14.10;;
8675;SDS011;4375;52.486;13.424;2023-06-19T13:35:53;24.50;;;13.60;;
8675;SDS011;4375;52.486;13.424;2023-06-19T13:38:18;26.83;;;14.60;;
8675;SDS011;4375;52.486;13.424;2023-06-19T13:40:44;26.80;;;13.90;;
8675;SDS011;4375;52.486;13.424;2023-06-19T13:43:10;26.40;;;13.37;;
8675;SDS011;4375;52.486;13.424;2023-06-19T13:45:35;28.47;;;14.23;;
8675;SDS011;4375;52.486;13.424;2023-06-19T13:48:03;27.40;;;13.00;;
8675;SDS011;4375;52.486;13.424;2023-06-19T13:50:29;23.77;;;12.60;;
8675;SDS011;4375;52.486;13.424;2023-06-19T13:52:55;25.40;;;13.73;;
8675;SDS011;4375;52.486;13.424;2023-06-19T13:55:21;25.07;;;13.90;;
8675;SDS011;4375;52.486;13.424;2023-06-19T13:57:48;26.27;;;14.20;;
8675;SDS011;4375;52.486;13.424;2023-06-19T14:00:13;27.03;;;14.40;;
8675;SDS011;4375;52.486;13.424;2023-06-19T14:02:39;26.57;;;14.50;;
8675;SDS011;4375;52.486;13.424;2023-06-19T14:05:06;28.90;;;14.33;;
8675;SDS011;4375;52.486;13.424;2023-06-19T14:07:33;26.07;;;13.93;;
8675;SDS011;4375;52.486;13.424;2023-06-19T14:10:00;26.93;;;16.17;;
8675;SDS011;4375;52.486;13.424;2023-06-19T14:12:26;32.43;;;17.73;;
8675;SDS011;4375;52.486;13.424;2023-06-19T14:14:52;25.87;;;15.20;;
8675;SDS011;4375;52.486;13.424;2023-06-19T14:17:17;40.03;;;24.50;;
8675;SDS011;4375;52.486;13.424;2023-06-19T14:19:43;34.13;;;21.30;;
8675;SDS011;4375;52.486;13.424;2023-06-19T14:22:08;28.83;;;16.70;;
8675;SDS011;4375;52.486;13.424;2023-06-19T14:24:34;30.03;;;17.37;;
8675;SDS011;4375;52.486;13.424;2023-06-19T14:27:00;34.80;;;17.20;;
8675;SDS011;4375;52.486;13.424;2023-06-19T14:29:26;26.13;;;14.57;;
8675;SDS011;4375;52.486;13.424;2023-06-19T14:31:51;30.07;;;14.17;;
8675;SDS011;4375;52.486;13.424;2023-06-19T14:34:20;24.30;;;12.73;;
8675;SDS011;4375;52.486;13.424;2023-06-19T14:36:46;24.23;;;12.90;;
8675;SDS011;4375;52.486;13.424;2023-06-19T14:39:12;23.60;;;12.80;;
8675;SDS011;4375;52.486;13.424;2023-06-19T14:41:39;27.23;;;14.03;;
8675;SDS011;4375;52.486;13.424;2023-06-19T14:44:05;25.07;;;12.50;;
8675;SDS011;4375;52.486;13.424;2023-06-19T14:46:33;25.97;;;12.83;;
8675;SDS011;4375;52.486;13.424;2023-06-19T14:49:04;25.03;;;12.57;;